createdAt,value
2022-09-29T00:01:37.817Z,5.34
2022-09-29T00:04:04.306Z,5.32
2022-09-29T00:06:30.610Z,5.30
2022-09-29T00:08:58.323Z,5.25
2022-09-29T00:11:24.678Z,5.27
2022-09-29T00:13:51.058Z,5.29
2022-09-29T00:16:17.488Z,5.28
2022-09-29T00:18:43.929Z,5.14
2022-09-29T00:21:15.887Z,5.09
2022-09-29T00:23:42.445Z,5.11
2022-09-29T00:26:18.026Z,5.02
2022-09-29T00:28:53.855Z,5.02
2022-09-29T00:31:21.445Z,5.06
2022-09-29T00:33:47.874Z,5.03
2022-09-29T00:36:16.952Z,4.99
2022-09-29T00:38:44.525Z,5.02
2022-09-29T00:41:17.951Z,5.02
2022-09-29T00:43:50.395Z,5.02
2022-09-29T00:46:20.926Z,5.09
2022-09-29T00:48:47.945Z,5.08
2022-09-29T00:51:16.236Z,5.09
2022-09-29T00:53:43.422Z,5.02
2022-09-29T00:56:15.071Z,5.01
2022-09-29T00:58:54.651Z,5.10
2022-09-29T01:01:23.042Z,5.21
2022-09-29T01:03:54.366Z,5.17
2022-09-29T01:06:27.969Z,5.10
2022-09-29T01:09:04.081Z,4.97
2022-09-29T01:11:30.738Z,4.98
2022-09-29T01:14:03.513Z,5.02
2022-09-29T01:16:34.617Z,5.06
2022-09-29T01:19:05.946Z,5.12
2022-09-29T01:21:54.094Z,4.98
2022-09-29T01:24:38.384Z,4.92
2022-09-29T01:27:35.040Z,4.92
2022-09-29T01:30:19.950Z,4.89
2022-09-29T01:33:01.622Z,4.80
2022-09-29T01:35:43.415Z,4.82
2022-09-29T01:38:15.805Z,4.91
2022-09-29T01:40:49.510Z,4.88
2022-09-29T01:43:27.669Z,4.80
2022-09-29T01:46:03.398Z,4.78
2022-09-29T01:48:35.925Z,4.72
2022-09-29T01:51:08.839Z,4.74
2022-09-29T01:53:42.281Z,4.80
2022-09-29T01:56:17.932Z,4.85
2022-09-29T01:58:54.322Z,4.78
2022-09-29T02:01:25.035Z,4.66
2022-09-29T02:04:01.201Z,4.66
2022-09-29T02:06:36.341Z,4.71
2022-09-29T02:09:08.637Z,4.76
2022-09-29T02:11:38.364Z,4.88
2022-09-29T02:14:10.659Z,4.92
2022-09-29T02:16:46.280Z,4.87
2022-09-29T02:19:22.596Z,4.78
2022-09-29T02:21:49.151Z,4.65
2022-09-29T02:24:15.675Z,4.63
2022-09-29T02:26:45.040Z,4.68
2022-09-29T02:29:11.633Z,4.65
2022-09-29T02:31:39.006Z,4.72
2022-09-29T02:34:08.845Z,4.67
2022-09-29T02:37:04.255Z,4.69
2022-09-29T02:39:56.346Z,4.87
2022-09-29T02:42:50.720Z,4.94
2022-09-29T02:45:38.758Z,4.89
2022-09-29T02:48:36.923Z,4.87
2022-09-29T02:51:15.772Z,4.83
2022-09-29T02:53:55.627Z,4.88
2022-09-29T02:56:27.241Z,4.90
2022-09-29T02:59:04.481Z,4.85
2022-09-29T03:01:32.710Z,4.82
2022-09-29T03:04:03.988Z,4.90
2022-09-29T03:06:30.989Z,4.83
2022-09-29T03:08:57.276Z,4.85
2022-09-29T03:11:23.570Z,4.84
2022-09-29T03:13:49.910Z,4.83
2022-09-29T03:16:16.279Z,4.90
2022-09-29T03:18:44.016Z,4.92
2022-09-29T03:21:10.323Z,4.80
2022-09-29T03:23:36.659Z,4.68
2022-09-29T03:26:03.085Z,4.62
2022-09-29T03:28:29.476Z,4.68
2022-09-29T03:30:55.794Z,4.76
2022-09-29T03:33:22.132Z,4.68
2022-09-29T03:35:48.474Z,4.65
2022-09-29T03:38:14.769Z,4.60
2022-09-29T03:40:41.152Z,4.64
2022-09-29T03:43:07.517Z,4.63
2022-09-29T03:45:33.874Z,4.65
2022-09-29T03:48:00.375Z,4.59
2022-09-29T03:50:26.689Z,4.53
2022-09-29T03:52:53.183Z,4.48
2022-09-29T03:55:19.525Z,4.47
2022-09-29T03:57:46.330Z,4.41
2022-09-29T04:00:13.240Z,4.46
2022-09-29T04:02:39.517Z,4.51
2022-09-29T04:05:06.166Z,4.49
2022-09-29T04:07:32.549Z,4.57
2022-09-29T04:09:58.865Z,4.51
2022-09-29T04:12:25.291Z,4.63
2022-09-29T04:14:51.691Z,4.61
2022-09-29T04:17:18.019Z,4.60
2022-09-29T04:19:44.316Z,4.64
2022-09-29T04:22:11.550Z,4.56
2022-09-29T04:24:38.529Z,4.56
2022-09-29T04:27:04.858Z,4.64
2022-09-29T04:29:31.166Z,4.67
2022-09-29T04:31:58.063Z,4.68
2022-09-29T04:34:24.427Z,4.65
2022-09-29T04:36:51.011Z,4.66
2022-09-29T04:39:17.341Z,4.72
2022-09-29T04:41:43.788Z,4.68
2022-09-29T04:44:10.325Z,4.69
2022-09-29T04:46:36.848Z,4.81
2022-09-29T04:49:03.246Z,4.83
2022-09-29T04:51:29.533Z,4.83
2022-09-29T04:53:58.425Z,4.85
2022-09-29T04:56:25.068Z,4.93
2022-09-29T04:58:51.383Z,4.83
2022-09-29T05:01:17.743Z,4.82
2022-09-29T05:03:44.070Z,4.90
2022-09-29T05:06:10.677Z,4.92
2022-09-29T05:08:37.018Z,4.89
2022-09-29T05:11:07.697Z,4.79
2022-09-29T05:13:34.437Z,4.70
2022-09-29T05:16:01.226Z,4.77
2022-09-29T05:18:27.943Z,4.76
2022-09-29T05:21:15.904Z,4.68
2022-09-29T05:23:42.455Z,4.71
2022-09-29T05:26:10.374Z,4.68
2022-09-29T05:28:38.043Z,4.73
2022-09-29T05:31:06.803Z,4.80
2022-09-29T05:33:34.150Z,4.83
2022-09-29T05:36:00.789Z,4.87
2022-09-29T05:38:28.058Z,4.84
2022-09-29T05:40:54.410Z,4.89
2022-09-29T05:43:20.787Z,4.85
2022-09-29T05:45:47.187Z,4.95
2022-09-29T05:48:13.584Z,5.08
2022-09-29T05:50:43.157Z,5.14
2022-09-29T05:53:13.694Z,5.19
2022-09-29T05:55:40.013Z,5.25
2022-09-29T05:58:06.899Z,5.28
2022-09-29T06:00:33.321Z,5.28
2022-09-29T06:03:00.141Z,5.37
2022-09-29T06:05:27.428Z,5.38
2022-09-29T06:07:54.258Z,5.40
2022-09-29T06:10:20.591Z,5.44
2022-09-29T06:12:46.915Z,5.48
2022-09-29T06:15:13.340Z,5.41
2022-09-29T06:17:39.785Z,5.46
2022-09-29T06:20:07.012Z,5.47
2022-09-29T06:22:33.628Z,5.48
2022-09-29T06:24:59.951Z,5.55
2022-09-29T06:27:26.356Z,5.58
2022-09-29T06:29:52.694Z,5.71
2022-09-29T06:32:19.170Z,5.72
2022-09-29T06:35:03.883Z,5.74
2022-09-29T06:37:36.496Z,5.80
2022-09-29T06:40:11.020Z,5.84
2022-09-29T06:42:38.436Z,5.89
2022-09-29T06:45:05.312Z,5.90
2022-09-29T06:47:31.638Z,5.98
2022-09-29T06:50:14.876Z,6.03
2022-09-29T06:52:56.271Z,6.10
2022-09-29T06:55:27.634Z,6.19
2022-09-29T06:57:54.273Z,6.27
2022-09-29T07:00:20.545Z,6.30
2022-09-29T07:02:47.113Z,6.32
2022-09-29T07:05:13.559Z,6.32
2022-09-29T07:07:39.899Z,6.30
2022-09-29T07:10:06.617Z,6.30
2022-09-29T07:12:32.914Z,6.37
2022-09-29T07:14:59.232Z,6.49
2022-09-29T07:17:25.528Z,6.50
2022-09-29T07:19:54.646Z,6.55
2022-09-29T07:22:21.023Z,6.54
2022-09-29T07:24:48.373Z,6.64
2022-09-29T07:27:14.900Z,6.70
2022-09-29T07:29:41.552Z,6.68
2022-09-29T07:32:14.440Z,6.77
2022-09-29T07:34:45.673Z,6.84
2022-09-29T07:37:12.297Z,6.91
2022-09-29T07:39:39.787Z,6.96
2022-09-29T07:42:09.176Z,7.06
2022-09-29T07:44:35.746Z,7.14
2022-09-29T07:47:02.061Z,7.23
2022-09-29T07:49:28.418Z,7.31
2022-09-29T07:51:54.850Z,7.46
2022-09-29T07:54:24.489Z,7.53
2022-09-29T07:56:53.488Z,7.56
2022-09-29T07:59:19.830Z,7.59
2022-09-29T08:01:46.615Z,7.60
2022-09-29T08:04:13.073Z,7.73
2022-09-29T08:06:40.661Z,7.76
2022-09-29T08:09:06.986Z,7.83
2022-09-29T08:11:37.258Z,7.85
2022-09-29T08:14:03.644Z,7.91
2022-09-29T08:16:30.343Z,7.86
2022-09-29T08:18:56.797Z,7.91
2022-09-29T08:21:23.263Z,8.00
2022-09-29T08:23:49.692Z,8.04
2022-09-29T08:26:19.701Z,8.08
2022-09-29T08:28:58.491Z,8.20
2022-09-29T08:31:30.803Z,8.26
2022-09-29T08:33:58.859Z,8.28
2022-09-29T08:36:26.271Z,8.33
2022-09-29T08:38:54.920Z,8.37
2022-09-29T08:41:39.825Z,8.33
2022-09-29T08:44:38.501Z,8.42
2022-09-29T08:47:15.288Z,8.41
2022-09-29T08:49:47.971Z,8.37
2022-09-29T08:52:26.637Z,8.34
2022-09-29T08:55:22.623Z,8.40
2022-09-29T08:57:57.469Z,8.54
2022-09-29T09:00:34.591Z,8.60
2022-09-29T09:03:15.887Z,8.55
2022-09-29T09:06:03.036Z,8.49
2022-09-29T09:08:32.324Z,8.59
2022-09-29T09:11:24.870Z,8.78
2022-09-29T09:14:17.856Z,8.89
2022-09-29T09:17:12.636Z,9.00
2022-09-29T09:19:57.288Z,9.06
2022-09-29T09:22:46.104Z,9.10
2022-09-29T09:25:23.657Z,9.12
2022-09-29T09:28:00.991Z,9.19
2022-09-29T09:30:35.563Z,9.39
2022-09-29T09:33:06.669Z,9.55
2022-09-29T09:35:58.943Z,9.63
2022-09-29T09:38:33.922Z,9.79
2022-09-29T09:41:01.279Z,9.84
2022-09-29T09:43:45.614Z,9.96
2022-09-29T09:46:24.751Z,10.12
2022-09-29T09:48:56.960Z,10.09
2022-09-29T09:51:35.921Z,10.07
2022-09-29T09:54:09.642Z,10.11
2022-09-29T09:57:09.385Z,10.22
2022-09-29T10:00:10.676Z,10.25
2022-09-29T10:02:46.180Z,10.31
2022-09-29T10:05:14.975Z,10.37
2022-09-29T10:07:41.478Z,10.41
2022-09-29T10:10:19.551Z,10.36
2022-09-29T10:12:46.325Z,10.40
2022-09-29T10:15:20.583Z,10.50
2022-09-29T10:17:51.732Z,10.46
2022-09-29T10:20:32.024Z,10.67
2022-09-29T10:23:32.668Z,10.80
2022-09-29T10:26:06.197Z,10.73
2022-09-29T10:28:43.126Z,10.68
2022-09-29T10:31:28.004Z,10.73
2022-09-29T10:34:15.127Z,10.83
2022-09-29T10:36:58.016Z,10.82
2022-09-29T10:39:40.754Z,10.84
2022-09-29T10:42:50.224Z,10.84
2022-09-29T10:45:30.041Z,10.97
2022-09-29T10:48:00.253Z,10.97
2022-09-29T10:50:33.466Z,11.07
2022-09-29T10:53:23.186Z,11.05
2022-09-29T10:55:54.785Z,11.03
2022-09-29T10:58:45.139Z,11.05
2022-09-29T11:01:18.146Z,10.95
2022-09-29T11:03:55.049Z,10.94
2022-09-29T11:06:44.128Z,10.92
2022-09-29T11:09:13.447Z,10.97
2022-09-29T11:11:56.671Z,10.84
2022-09-29T11:14:31.117Z,10.75
2022-09-29T11:17:00.374Z,10.86
2022-09-29T11:19:29.428Z,10.77
2022-09-29T11:22:10.809Z,10.79
2022-09-29T11:24:55.262Z,10.71
2022-09-29T11:27:58.126Z,10.67
2022-09-29T11:30:32.945Z,10.66
2022-09-29T11:33:29.984Z,10.72
2022-09-29T11:36:34.165Z,10.73
2022-09-29T11:39:22.913Z,10.81
2022-09-29T11:42:19.732Z,10.73
2022-09-29T11:45:10.945Z,10.66
2022-09-29T11:48:02.563Z,10.73
2022-09-29T11:50:54.822Z,10.68
2022-09-29T11:53:46.246Z,10.76
2022-09-29T11:56:31.772Z,10.61
2022-09-29T11:59:26.024Z,10.67
2022-09-29T12:02:19.146Z,10.69
2022-09-29T12:04:54.672Z,10.72
2022-09-29T12:07:43.174Z,10.72
2022-09-29T12:10:27.543Z,10.68
2022-09-29T12:13:03.834Z,10.46
2022-09-29T12:15:51.209Z,10.45
2022-09-29T12:18:22.935Z,10.43
2022-09-29T12:20:52.978Z,10.52
2022-09-29T12:23:23.261Z,10.52
2022-09-29T12:26:13.307Z,10.44
2022-09-29T12:28:45.216Z,10.44
2022-09-29T12:31:18.339Z,10.47
2022-09-29T12:33:49.698Z,10.44
2022-09-29T12:36:45.801Z,10.44
2022-09-29T12:39:22.212Z,10.43
2022-09-29T12:41:54.161Z,10.51
2022-09-29T12:44:38.254Z,10.66
2022-09-29T12:47:13.290Z,10.79
2022-09-29T12:49:53.629Z,10.79
2022-09-29T12:52:29.722Z,10.83
2022-09-29T12:55:01.908Z,10.85
2022-09-29T12:57:34.662Z,10.83
2022-09-29T13:00:12.645Z,10.81
2022-09-29T13:03:16.603Z,10.80
2022-09-29T13:06:10.932Z,10.78
2022-09-29T13:08:58.116Z,10.73
2022-09-29T13:11:44.585Z,10.82
2022-09-29T13:14:31.969Z,10.86
2022-09-29T13:17:13.713Z,10.76
2022-09-29T13:20:04.928Z,10.68
2022-09-29T13:22:43.481Z,10.55
2022-09-29T13:25:22.284Z,10.59
2022-09-29T13:27:51.324Z,10.51
2022-09-29T13:30:20.765Z,10.55
2022-09-29T13:32:56.330Z,10.54
2022-09-29T13:35:25.225Z,10.51
2022-09-29T13:38:04.266Z,10.46
2022-09-29T13:40:31.965Z,10.51
2022-09-29T13:43:00.475Z,10.49
2022-09-29T13:45:34.749Z,10.49
2022-09-29T13:48:16.478Z,10.37
2022-09-29T13:50:57.999Z,10.29
2022-09-29T13:53:34.686Z,10.19
2022-09-29T13:56:04.178Z,10.13
2022-09-29T13:58:33.609Z,10.15
2022-09-29T14:01:02.649Z,10.21
2022-09-29T14:03:34.456Z,10.23
2022-09-29T14:06:39.572Z,10.14
2022-09-29T14:09:14.884Z,10.07
2022-09-29T14:11:47.508Z,10.11
2022-09-29T14:14:24.457Z,10.13
2022-09-29T14:16:56.270Z,10.06
2022-09-29T14:19:50.405Z,10.10
2022-09-29T14:22:38.263Z,10.06
2022-09-29T14:25:10.840Z,9.97
2022-09-29T14:28:08.374Z,9.96
2022-09-29T14:30:51.490Z,9.82
2022-09-29T14:33:34.353Z,9.97
2022-09-29T14:36:00.646Z,10.01
2022-09-29T14:38:43.675Z,10.05
2022-09-29T14:41:12.564Z,9.97
2022-09-29T14:43:50.756Z,9.94
2022-09-29T14:47:05.271Z,9.94
2022-09-29T14:50:15.395Z,9.97
2022-09-29T14:53:17.192Z,9.86
2022-09-29T14:56:13.702Z,9.82
2022-09-29T14:59:00.287Z,9.87
2022-09-29T15:01:31.634Z,9.89
2022-09-29T15:04:14.466Z,9.83
2022-09-29T15:06:48.502Z,9.84
2022-09-29T15:09:21.969Z,9.86
2022-09-29T15:11:53.835Z,9.84
2022-09-29T15:14:39.471Z,9.78
2022-09-29T15:17:21.989Z,9.78
2022-09-29T15:20:07.994Z,9.81
2022-09-29T15:22:54.543Z,9.87
2022-09-29T15:25:35.721Z,9.88
2022-09-29T15:28:10.484Z,9.90
2022-09-29T15:30:37.307Z,9.88
2022-09-29T15:33:26.257Z,9.91
2022-09-29T15:35:57.553Z,10.01
2022-09-29T15:38:23.836Z,10.04
2022-09-29T15:40:59.221Z,9.96
2022-09-29T15:43:28.052Z,9.95
2022-09-29T15:46:00.290Z,9.85
2022-09-29T15:48:28.515Z,9.92
2022-09-29T15:50:55.667Z,9.82
2022-09-29T15:53:24.377Z,9.82
2022-09-29T15:55:51.412Z,9.92
2022-09-29T15:58:26.997Z,9.94
2022-09-29T16:01:02.686Z,9.93
2022-09-29T16:04:02.583Z,9.97
2022-09-29T16:06:32.407Z,10.03
2022-09-29T16:09:06.024Z,9.98
2022-09-29T16:11:38.018Z,10.00
2022-09-29T16:14:09.668Z,9.98
2022-09-29T16:16:42.216Z,9.94
2022-09-29T16:19:30.708Z,9.99
2022-09-29T16:22:01.506Z,9.98
2022-09-29T16:24:34.454Z,10.01
2022-09-29T16:27:01.635Z,9.98
2022-09-29T16:29:33.188Z,9.88
2022-09-29T16:32:20.743Z,9.91
2022-09-29T16:34:47.105Z,9.89
2022-09-29T16:37:17.913Z,9.86
2022-09-29T16:39:47.210Z,9.97
2022-09-29T16:42:24.399Z,9.96
2022-09-29T16:44:54.169Z,9.87
2022-09-29T16:47:29.568Z,9.74
2022-09-29T16:49:58.605Z,9.70
2022-09-29T16:52:28.587Z,9.75
2022-09-29T16:55:21.495Z,9.78
2022-09-29T16:57:57.175Z,9.78
2022-09-29T17:00:24.097Z,9.76
2022-09-29T17:03:03.155Z,9.77
2022-09-29T17:05:29.870Z,9.74
2022-09-29T17:08:00.782Z,9.69
2022-09-29T17:10:27.630Z,9.70
2022-09-29T17:12:55.148Z,9.70
2022-09-29T17:15:22.374Z,9.69
2022-09-29T17:17:50.499Z,9.75
2022-09-29T17:20:29.909Z,9.79
2022-09-29T17:22:59.023Z,9.73
2022-09-29T17:25:25.384Z,9.73
2022-09-29T17:28:10.428Z,9.70
2022-09-29T17:30:36.814Z,9.66
2022-09-29T17:33:03.641Z,9.67
2022-09-29T17:35:34.024Z,9.59
2022-09-29T17:38:00.412Z,9.60
2022-09-29T17:41:02.288Z,9.64
2022-09-29T17:43:31.174Z,9.63
2022-09-29T17:45:59.478Z,9.74
2022-09-29T17:48:27.241Z,9.70
2022-09-29T17:50:56.472Z,9.72
2022-09-29T17:53:24.557Z,9.76
2022-09-29T17:55:54.252Z,9.74
2022-09-29T17:58:20.760Z,9.73
2022-09-29T18:00:49.870Z,9.75
2022-09-29T18:03:18.493Z,9.77
2022-09-29T18:05:48.522Z,9.78
2022-09-29T18:08:17.296Z,9.69
2022-09-29T18:10:48.679Z,9.71
2022-09-29T18:13:15.065Z,9.68
2022-09-29T18:15:43.546Z,9.69
2022-09-29T18:18:17.199Z,9.74
2022-09-29T18:20:47.442Z,9.71
2022-09-29T18:23:17.366Z,9.66
2022-09-29T18:25:47.956Z,9.67
2022-09-29T18:28:15.410Z,9.70
2022-09-29T18:30:43.766Z,9.70
2022-09-29T18:33:14.268Z,9.70
2022-09-29T18:35:42.575Z,9.70
2022-09-29T18:38:09.805Z,9.70
2022-09-29T18:40:38.160Z,9.66
2022-09-29T18:43:06.253Z,9.67
2022-09-29T18:45:36.649Z,9.61
2022-09-29T18:48:06.356Z,9.57
2022-09-29T18:50:35.166Z,9.66
2022-09-29T18:53:01.943Z,9.60
2022-09-29T18:55:29.926Z,9.55
2022-09-29T18:57:58.561Z,9.55
2022-09-29T19:00:28.890Z,9.61
2022-09-29T19:02:55.915Z,9.66
2022-09-29T19:05:24.738Z,9.68
2022-09-29T19:07:56.468Z,9.70
2022-09-29T19:10:23.023Z,9.70
2022-09-29T19:12:50.713Z,9.67
2022-09-29T19:15:19.881Z,9.75
2022-09-29T19:17:47.797Z,9.72
2022-09-29T19:20:16.432Z,9.74
2022-09-29T19:22:43.483Z,9.73
2022-09-29T19:25:16.834Z,9.68
2022-09-29T19:27:44.615Z,9.61
2022-09-29T19:30:13.865Z,9.64
2022-09-29T19:32:41.610Z,9.67
2022-09-29T19:35:10.523Z,9.63
2022-09-29T19:37:37.791Z,9.66
2022-09-29T19:40:07.561Z,9.72
2022-09-29T19:42:45.164Z,9.72
2022-09-29T19:45:12.652Z,9.73
2022-09-29T19:47:39.459Z,9.70
2022-09-29T19:50:25.522Z,9.67
2022-09-29T19:52:51.968Z,9.65
2022-09-29T19:55:19.108Z,9.70
2022-09-29T19:57:46.089Z,9.72
2022-09-29T20:00:19.436Z,9.73
2022-09-29T20:02:47.046Z,9.71
2022-09-29T20:05:15.308Z,9.74
2022-09-29T20:07:44.117Z,9.69
2022-09-29T20:10:16.475Z,9.70
2022-09-29T20:12:43.575Z,9.68
2022-09-29T20:15:11.875Z,9.70
2022-09-29T20:17:40.079Z,9.72
2022-09-29T20:20:08.042Z,9.67
2022-09-29T20:22:35.319Z,9.68
2022-09-29T20:25:02.357Z,9.66
2022-09-29T20:27:29.026Z,9.67
2022-09-29T20:29:55.470Z,9.69
2022-09-29T20:32:22.050Z,9.70
2022-09-29T20:34:49.162Z,9.64
2022-09-29T20:37:16.117Z,9.59
2022-09-29T20:39:42.501Z,9.65
2022-09-29T20:42:09.120Z,9.66
2022-09-29T20:44:35.913Z,9.68
2022-09-29T20:47:02.357Z,9.61
2022-09-29T20:49:29.490Z,9.56
2022-09-29T20:51:56.512Z,9.57
2022-09-29T20:54:23.640Z,9.65
2022-09-29T20:56:52.373Z,9.65
2022-09-29T20:59:23.629Z,9.67
2022-09-29T21:01:52.728Z,9.65
2022-09-29T21:04:20.682Z,9.65
2022-09-29T21:06:49.529Z,9.66
2022-09-29T21:09:18.553Z,9.65
2022-09-29T21:11:47.050Z,9.64
2022-09-29T21:14:18.759Z,9.64
2022-09-29T21:16:47.008Z,9.61
2022-09-29T21:19:14.414Z,9.67
2022-09-29T21:21:43.411Z,9.64
2022-09-29T21:24:10.909Z,9.63
2022-09-29T21:26:37.632Z,9.61
2022-09-29T21:29:04.739Z,9.61
2022-09-29T21:31:33.610Z,9.56
2022-09-29T21:34:05.156Z,9.54
2022-09-29T21:36:34.148Z,9.55
2022-09-29T21:39:03.856Z,9.58
2022-09-29T21:41:35.417Z,9.59
2022-09-29T21:44:06.406Z,9.52
2022-09-29T21:46:34.103Z,9.52
2022-09-29T21:49:03.248Z,9.57
2022-09-29T21:51:34.645Z,9.57
2022-09-29T21:54:02.084Z,9.56
2022-09-29T21:56:31.854Z,9.49
2022-09-29T21:58:58.790Z,9.46
2022-09-29T22:01:27.189Z,9.53
2022-09-29T22:03:55.913Z,9.47
2022-09-29T22:06:25.394Z,9.49
2022-09-29T22:08:52.431Z,9.52
2022-09-29T22:11:21.587Z,9.35
2022-09-29T22:13:52.538Z,9.37
2022-09-29T22:16:25.376Z,9.41
2022-09-29T22:19:18.340Z,9.42
2022-09-29T22:21:40.388Z,9.43
2022-09-29T22:24:06.886Z,9.45
2022-09-29T22:26:33.534Z,9.30
2022-09-29T22:29:01.637Z,9.33
2022-09-29T22:31:29.093Z,9.28
2022-09-29T22:33:58.139Z,9.27
2022-09-29T22:36:26.829Z,9.23
2022-09-29T22:38:53.208Z,9.19
2022-09-29T22:41:23.960Z,9.11
2022-09-29T22:43:54.956Z,9.01
2022-09-29T22:46:23.256Z,9.02
2022-09-29T22:48:49.908Z,8.90
2022-09-29T22:51:16.718Z,8.85
2022-09-29T22:53:43.163Z,8.79
2022-09-29T22:56:21.580Z,8.65
2022-09-29T22:58:49.158Z,8.55
2022-09-29T23:01:17.452Z,8.51
2022-09-29T23:03:45.427Z,8.50
2022-09-29T23:06:13.492Z,8.51
2022-09-29T23:08:40.060Z,8.50
2022-09-29T23:11:07.855Z,8.46
2022-09-29T23:13:36.875Z,8.39
2022-09-29T23:16:09.669Z,8.40
2022-09-29T23:18:43.582Z,8.40
2022-09-29T23:21:11.314Z,8.32
2022-09-29T23:23:37.703Z,8.34
2022-09-29T23:26:04.106Z,8.37
2022-09-29T23:28:30.514Z,8.40
2022-09-29T23:31:02.848Z,8.39
2022-09-29T23:33:29.217Z,8.47
2022-09-29T23:35:55.579Z,8.46
2022-09-29T23:38:40.565Z,8.43
2022-09-29T23:41:07.968Z,8.38
2022-09-29T23:43:34.516Z,8.37
2022-09-29T23:46:00.817Z,8.30
2022-09-29T23:48:27.337Z,8.32
2022-09-29T23:50:54.045Z,8.35
2022-09-29T23:53:20.396Z,8.26
2022-09-29T23:55:46.779Z,8.22
2022-09-29T23:58:13.216Z,8.29
